Time;durP1;ratioP1;P1;durP2;ratioP2;P2;SDS_P1;SDS_P2;PMS_P1;PMS_P2;Temp;Humidity;BMP_temperature;BMP_pressure;BME280_temperature;BME280_humidity;BME280_pressure;Samples;Min_cycle;Max_cycle;Signal;HPM_P1;HPM_P2
2022/04/21 00:05:05;;;;;;;4.57;2.00;;;12.40;90.30;;;;;;6728408;88;20315;-78
2022/04/21 00:15:07;;;;;;;4.37;1.77;;;12.20;91.80;;;;;;6724962;88;20192;-78
2022/04/21 00:25:08;;;;;;;6.28;1.60;;;12.20;93.00;;;;;;6726744;88;20215;-78
2022/04/21 00:35:14;;;;;;;4.45;1.73;;;11.90;94.70;;;;;;6728328;88;20289;-80
2022/04/21 00:45:15;;;;;;;3.43;1.50;;;11.60;97.40;;;;;;6728419;88;20357;-79
2022/04/21 00:55:16;;;;;;;3.33;1.70;;;11.50;98.30;;;;;;6723942;88;21197;-79
2022/04/21 01:05:33;;;;;;;5.53;1.85;;;11.30;99.70;;;;;;6727173;88;20241;-78
2022/04/21 01:15:33;;;;;;;4.32;1.50;;;11.40;99.90;;;;;;6723293;88;20311;-79
2022/04/21 01:25:41;;;;;;;3.83;1.70;;;11.00;99.90;;;;;;6727262;88;20272;-79
2022/04/21 01:35:42;;;;;;;5.40;1.98;;;10.70;99.90;;;;;;6723593;88;20188;-78
2022/04/21 01:45:43;;;;;;;5.43;1.90;;;10.60;99.90;;;;;;6728153;88;20634;-79
2022/04/21 01:55:44;;;;;;;3.05;1.80;;;10.40;99.90;;;;;;6727073;88;20700;-79
2022/04/21 02:05:45;;;;;;;3.92;2.00;;;10.30;99.90;;;;;;6728083;88;20192;-78
2022/04/21 02:15:45;;;;;;;3.08;2.17;;;10.30;99.90;;;;;;6730395;88;20196;-78
2022/04/21 02:25:46;;;;;;;4.55;1.85;;;10.50;99.90;;;;;;6730332;88;20703;-79
2022/04/21 02:35:47;;;;;;;4.90;1.75;;;10.30;99.90;;;;;;6726140;88;20220;-79
2022/04/21 02:45:47;;;;;;;3.53;2.05;;;9.90;99.90;;;;;;6726583;88;20209;-78
2022/04/21 03:06:07;;;;;;;3.50;2.05;;;9.50;99.90;;;;;;6731095;88;20652;-78
2022/04/21 03:16:07;;;;;;;4.18;2.20;;;9.50;99.90;;;;;;6730438;88;20518;-79
2022/04/21 03:26:15;;;;;;;4.63;2.23;;;9.20;99.90;;;;;;6733221;88;20200;-79
2022/04/21 03:36:16;;;;;;;3.62;1.98;;;9.10;99.90;;;;;;6733503;88;20941;-80
2022/04/21 03:46:16;;;;;;;3.42;2.20;;;8.90;99.90;;;;;;6729370;88;20176;-80
2022/04/21 03:56:17;;;;;;;4.55;2.20;;;9.00;99.90;;;;;;6733624;88;20188;-78
2022/04/21 04:16:36;;;;;;;4.20;2.33;;;8.80;99.90;;;;;;6734663;88;20216;-78
2022/04/21 04:26:37;;;;;;;6.73;2.50;;;8.60;99.90;;;;;;6734357;88;20231;-79
2022/04/21 04:36:37;;;;;;;5.90;2.17;;;8.50;99.90;;;;;;6733947;88;20521;-78
2022/04/21 04:46:38;;;;;;;6.32;2.50;;;8.30;99.90;;;;;;6734198;88;20181;-79
2022/04/21 04:56:40;;;;;;;5.75;2.70;;;8.40;99.90;;;;;;6733723;88;20226;-79
2022/04/21 05:06:44;;;;;;;5.20;2.55;;;8.50;99.90;;;;;;6733723;88;20279;-78
2022/04/21 05:16:45;;;;;;;7.53;3.00;;;8.60;99.90;;;;;;6732908;88;20241;-78
2022/04/21 05:26:46;;;;;;;6.05;2.85;;;8.60;99.90;;;;;;6728415;88;20180;-77
2022/04/21 05:36:47;;;;;;;7.32;3.20;;;8.70;99.90;;;;;;6733621;88;20218;-78
2022/04/21 05:46:48;;;;;;;4.50;2.72;;;9.10;99.90;;;;;;6727755;88;20177;-77
2022/04/21 05:56:49;;;;;;;6.47;3.12;;;9.30;99.90;;;;;;6730791;88;20251;-79
2022/04/21 06:06:50;;;;;;;6.45;3.25;;;9.60;99.90;;;;;;6728445;88;20620;-79
2022/04/21 06:16:50;;;;;;;7.05;3.30;;;9.90;99.90;;;;;;6732040;88;20584;-79
2022/04/21 06:26:51;;;;;;;7.82;3.80;;;10.10;99.90;;;;;;6731232;88;20260;-78
2022/04/21 06:36:51;;;;;;;7.75;3.50;;;10.80;99.90;;;;;;6730074;88;20193;-79
2022/04/21 06:57:11;;;;;;;6.43;3.28;;;11.40;99.90;;;;;;6731933;88;20706;-78
2022/04/21 07:07:11;;;;;;;6.65;2.90;;;12.20;99.90;;;;;;6733576;88;20331;-79
2022/04/21 07:17:12;;;;;;;4.10;2.47;;;12.40;99.90;;;;;;6731859;88;20384;-78
2022/04/21 07:27:13;;;;;;;6.43;2.40;;;12.70;99.90;;;;;;6730768;88;20188;-78
2022/04/21 07:37:13;;;;;;;6.50;3.10;;;13.00;99.90;;;;;;6730857;88;20721;-79
2022/04/21 07:47:14;;;;;;;5.15;2.75;;;13.50;99.90;;;;;;6730028;88;20212;-79
2022/04/21 07:57:15;;;;;;;6.35;2.97;;;14.00;99.90;;;;;;6735644;88;20318;-80
2022/04/21 08:07:57;;;;;;;7.70;3.42;;;14.50;99.90;;;;;;6750013;76;20190;-78
2022/04/21 08:17:59;;;;;;;5.50;2.70;;;15.40;98.10;;;;;;6754461;88;20206;-79
2022/04/21 08:38:19;;;;;;;3.37;1.20;;;16.80;94.50;;;;;;6758968;88;20235;-80
2022/04/21 08:48:22;;;;;;;3.10;1.33;;;17.60;90.30;;;;;;6755874;88;20262;-80
2022/04/21 08:58:23;;;;;;;2.60;1.10;;;17.30;87.80;;;;;;6758143;88;20241;-80
2022/04/21 09:08:26;;;;;;;8.57;1.75;;;17.50;87.10;;;;;;6750684;88;20216;-80
2022/04/21 09:18:45;;;;;;;6.07;1.58;;;18.10;81.90;;;;;;6755501;88;20251;-80
2022/04/21 09:28:57;;;;;;;2.65;1.42;;;18.10;81.10;;;;;;6737520;88;20215;-80
2022/04/21 09:39:00;;;;;;;3.60;1.40;;;17.80;80.90;;;;;;6719615;88;20187;-80
2022/04/21 09:49:00;;;;;;;5.15;1.40;;;18.10;81.90;;;;;;6685756;89;20202;-81
2022/04/21 09:59:08;;;;;;;4.40;1.30;;;18.40;78.20;;;;;;6696455;88;20732;-81
2022/04/21 10:09:10;;;;;;;2.70;1.30;;;18.70;77.00;;;;;;6702191;88;20710;-80
2022/04/21 10:19:12;;;;;;;3.15;1.20;;;18.90;78.90;;;;;;6732544;88;20192;-81
2022/04/21 10:29:14;;;;;;;2.25;1.30;;;19.70;74.00;;;;;;6740193;88;20196;-81
2022/04/21 10:39:18;;;;;;;3.72;1.20;;;18.90;75.40;;;;;;6742113;88;20202;-80
2022/04/21 10:49:57;;;;;;;3.30;1.30;;;18.60;74.30;;;;;;6741357;88;20180;-81
2022/04/21 11:00:08;;;;;;;2.40;1.23;;;18.40;74.40;;;;;;6739036;88;20195;-80
2022/04/21 11:10:38;;;;;;;5.25;1.05;;;18.60;72.50;;;;;;6718658;88;20207;-81
2022/04/21 11:20:44;;;;;;;1.67;1.00;;;18.90;73.20;;;;;;6718843;88;20195;-81
2022/04/21 11:30:45;;;;;;;3.28;1.35;;;19.40;72.80;;;;;;6717512;88;20199;-81
2022/04/21 11:40:46;;;;;;;2.45;1.23;;;20.10;71.70;;;;;;6734707;88;20201;-80
2022/04/21 11:50:47;;;;;;;2.83;1.10;;;19.80;69.50;;;;;;6759767;88;20623;-80
2022/04/21 12:11:09;;;;;;;2.87;1.58;;;19.20;71.00;;;;;;6774474;88;20203;-80
2022/04/21 12:21:10;;;;;;;2.30;1.27;;;20.00;71.00;;;;;;6772962;87;20658;-81
2022/04/21 12:31:10;;;;;;;2.93;1.10;;;20.60;69.40;;;;;;6761126;87;20313;-81
2022/04/21 12:41:11;;;;;;;2.47;1.17;;;21.30;69.20;;;;;;6765214;88;20244;-82
2022/04/21 12:51:18;;;;;;;2.92;1.08;;;22.30;68.10;;;;;;6770097;87;20730;-80
2022/04/21 13:01:18;;;;;;;6.68;1.15;;;21.80;67.30;;;;;;6766602;88;20614;-80
2022/04/21 13:11:19;;;;;;;2.83;1.10;;;21.60;68.00;;;;;;6764217;88;20203;-81
2022/04/21 13:41:58;;;;;;;2.55;1.00;;;21.60;67.00;;;;;;6734770;88;20208;-81
2022/04/21 13:51:59;;;;;;;3.95;0.70;;;20.80;68.20;;;;;;6732145;88;20335;-80
2022/04/21 14:02:00;;;;;;;2.50;0.93;;;19.70;70.50;;;;;;6737501;88;20284;-80
2022/04/21 14:12:41;;;;;;;1.85;1.00;;;20.00;70.50;;;;;;6648170;77;20220;-80
2022/04/21 14:22:42;;;;;;;1.60;0.80;;;19.70;71.90;;;;;;6656644;88;20213;-80
2022/04/21 14:32:42;;;;;;;1.98;0.90;;;19.20;73.10;;;;;;6653583;88;20654;-80
2022/04/21 14:53:03;;;;;;;3.17;1.17;;;19.50;73.50;;;;;;6654434;89;20233;-79
2022/04/21 15:03:04;;;;;;;3.47;1.27;;;19.40;75.90;;;;;;6654607;89;20201;-79
2022/04/21 15:13:04;;;;;;;2.45;1.17;;;19.50;75.70;;;;;;6653576;88;20219;-79
2022/04/21 15:23:07;;;;;;;4.60;1.10;;;19.40;76.30;;;;;;6655227;89;20284;-79
2022/04/21 15:33:12;;;;;;;2.22;1.15;;;19.10;77.10;;;;;;6656434;88;20685;-79
2022/04/21 15:43:12;;;;;;;2.67;1.27;;;18.70;77.30;;;;;;6656559;89;20196;-79
2022/04/21 16:03:34;;;;;;;3.05;1.05;;;18.20;78.80;;;;;;6640079;89;20199;-80
2022/04/21 16:13:34;;;;;;;3.40;1.02;;;18.30;79.40;;;;;;6640339;89;20215;-79
2022/04/21 16:23:36;;;;;;;4.57;1.00;;;18.40;79.20;;;;;;6639447;89;20333;-80
2022/04/21 16:33:36;;;;;;;2.22;0.90;;;18.30;79.40;;;;;;6638113;89;20192;-80
2022/04/21 16:43:37;;;;;;;1.70;0.75;;;18.30;79.30;;;;;;6638940;89;20259;-79
2022/04/21 16:53:38;;;;;;;2.55;1.08;;;18.10;79.90;;;;;;6639431;88;20196;-79
2022/04/21 17:03:39;;;;;;;3.58;1.23;;;18.00;80.40;;;;;;6636480;89;20180;-79
2022/04/21 17:13:39;;;;;;;3.75;1.50;;;17.40;82.60;;;;;;6636271;88;20238;-79
2022/04/21 17:23:40;;;;;;;4.12;1.42;;;17.10;83.10;;;;;;6635672;88;20193;-79
2022/04/21 17:33:41;;;;;;;3.95;1.90;;;17.00;83.90;;;;;;6635433;88;20189;-79
2022/04/21 17:43:41;;;;;;;4.70;2.08;;;16.80;84.60;;;;;;6629851;89;20287;-79
2022/04/21 17:53:42;;;;;;;2.85;1.67;;;16.60;85.80;;;;;;6634589;88;20219;-78
2022/04/21 18:03:44;;;;;;;4.18;1.70;;;16.30;86.90;;;;;;6635279;88;20216;-79
2022/04/21 18:13:47;;;;;;;3.45;2.00;;;16.30;87.60;;;;;;6635797;88;20329;-78
2022/04/21 18:23:48;;;;;;;2.92;1.70;;;16.20;87.40;;;;;;6634913;88;20254;-79
2022/04/21 18:33:49;;;;;;;5.70;1.92;;;16.00;88.40;;;;;;6635483;88;20206;-79
2022/04/21 18:43:49;;;;;;;4.80;2.00;;;16.00;88.50;;;;;;6634866;88;20192;-78
2022/04/21 18:53:50;;;;;;;4.85;2.20;;;16.00;88.80;;;;;;6635049;89;21178;-79
2022/04/21 19:03:50;;;;;;;5.55;2.40;;;15.90;89.70;;;;;;6638046;89;20703;-79
2022/04/21 19:13:51;;;;;;;4.53;2.10;;;15.70;89.90;;;;;;6636649;89;20328;-79
2022/04/21 19:23:52;;;;;;;7.97;2.17;;;15.60;90.40;;;;;;6635926;88;20195;-79
2022/04/21 19:33:52;;;;;;;4.25;2.40;;;15.50;90.50;;;;;;6636492;89;20662;-79
2022/04/21 19:43:54;;;;;;;5.65;2.80;;;15.20;90.80;;;;;;6637956;89;20214;-80
2022/04/21 19:53:54;;;;;;;4.03;2.40;;;15.10;91.20;;;;;;6650018;88;20195;-80
2022/04/21 20:13:59;;;;;;;4.80;2.35;;;14.90;92.00;;;;;;6678922;89;20258;-79
2022/04/21 20:23:59;;;;;;;5.28;2.60;;;14.70;92.50;;;;;;6676309;89;20187;-79
2022/04/21 20:34:00;;;;;;;4.73;2.43;;;14.60;92.90;;;;;;6671810;89;20222;-80
2022/04/21 20:44:00;;;;;;;6.78;2.83;;;14.50;93.60;;;;;;6673163;89;20530;-81
2022/04/21 20:54:01;;;;;;;4.28;2.70;;;14.40;94.10;;;;;;6682972;89;20245;-80
2022/04/21 21:04:01;;;;;;;7.80;2.65;;;14.10;94.90;;;;;;6676348;89;20190;-80
2022/04/21 21:14:03;;;;;;;4.72;2.75;;;13.80;96.10;;;;;;6683053;88;20204;-79
2022/04/21 21:24:04;;;;;;;5.50;2.80;;;13.60;97.10;;;;;;6681253;89;20205;-80
2022/04/21 21:34:05;;;;;;;4.87;2.80;;;13.60;97.60;;;;;;6675716;88;20376;-79
2022/04/21 21:44:05;;;;;;;6.10;3.12;;;13.50;98.50;;;;;;6679251;89;20782;-80
2022/04/21 21:54:07;;;;;;;5.32;3.10;;;13.40;99.50;;;;;;6678941;89;20312;-80
2022/04/21 22:04:07;;;;;;;7.72;3.35;;;13.30;99.90;;;;;;6675830;89;20764;-80
2022/04/21 22:14:08;;;;;;;4.28;2.67;;;13.00;99.90;;;;;;6678076;89;20334;-80
2022/04/21 22:24:09;;;;;;;6.53;2.50;;;13.10;99.90;;;;;;6679508;88;20233;-81
2022/04/21 22:34:09;;;;;;;10.15;4.85;;;12.90;99.90;;;;;;6684285;88;20207;-79
2022/04/21 22:44:12;;;;;;;6.20;3.45;;;12.90;99.90;;;;;;6685449;89;20711;-79
2022/04/21 22:54:13;;;;;;;6.07;3.53;;;12.90;99.90;;;;;;6680775;89;20203;-80
2022/04/21 23:04:14;;;;;;;5.32;3.50;;;12.80;99.90;;;;;;6684144;89;20203;-80
2022/04/21 23:14:14;;;;;;;6.68;3.90;;;12.70;99.90;;;;;;6686525;89;20216;-81
2022/04/21 23:24:15;;;;;;;7.10;4.20;;;12.70;99.90;;;;;;6681889;89;20195;-80
2022/04/21 23:34:15;;;;;;;7.62;4.07;;;12.50;99.90;;;;;;6684525;89;20215;-80
2022/04/21 23:44:16;;;;;;;8.57;4.78;;;12.40;99.90;;;;;;6682117;89;20221;-80
2022/04/21 23:54:19;;;;;;;7.00;3.67;;;12.30;99.90;;;;;;6681417;89;20222;-79
